Time;durP1;ratioP1;P1;durP2;ratioP2;P2;SDS_P1;SDS_P2;PMS_P1;PMS_P2;Temp;Humidity;BMP_temperature;BMP_pressure;BME280_temperature;BME280_humidity;BME280_pressure;Samples;Min_cycle;Max_cycle;Signal;HPM_P1;HPM_P2
2023/04/09 00:00:38;;;;;;;13.82;11.13;;;11.40;99.90;;;;;;5026815;28;20234;-71
2023/04/09 00:03:27;;;;;;;15.15;10.50;;;11.40;99.90;;;;;;5037107;28;20942;-74
2023/04/09 00:06:17;;;;;;;12.90;10.02;;;11.50;99.90;;;;;;5035762;28;20222;-74
2023/04/09 00:09:06;;;;;;;15.25;10.90;;;11.40;99.90;;;;;;5030490;28;20232;-74
2023/04/09 00:11:57;;;;;;;13.98;10.55;;;11.50;99.90;;;;;;5023295;28;20221;-74
2023/04/09 00:14:45;;;;;;;15.10;10.73;;;11.50;99.90;;;;;;5034839;28;20240;-74
2023/04/09 00:17:34;;;;;;;11.40;9.40;;;11.50;99.90;;;;;;5026847;28;20811;-75
2023/04/09 00:20:23;;;;;;;15.48;11.10;;;11.40;99.90;;;;;;5028351;28;20815;-73
2023/04/09 00:23:13;;;;;;;14.23;10.75;;;11.40;99.90;;;;;;5043829;28;20248;-73
2023/04/09 00:26:02;;;;;;;13.60;10.43;;;11.40;99.90;;;;;;5045076;28;20350;-73
2023/04/09 00:28:51;;;;;;;14.18;10.70;;;11.30;99.90;;;;;;5019398;28;20291;-74
2023/04/09 00:31:40;;;;;;;13.95;10.57;;;11.50;99.90;;;;;;5037450;28;20715;-75
2023/04/09 00:34:29;;;;;;;12.55;9.95;;;11.50;99.90;;;;;;5034190;28;20237;-74
2023/04/09 00:37:18;;;;;;;11.88;9.35;;;11.50;99.90;;;;;;5030669;28;20612;-72
2023/04/09 00:40:09;;;;;;;12.68;9.40;;;11.50;99.90;;;;;;5040452;28;20306;-73
2023/04/09 00:42:58;;;;;;;12.52;9.73;;;11.50;99.90;;;;;;5043979;28;20243;-74
2023/04/09 00:45:47;;;;;;;13.90;9.57;;;11.50;99.90;;;;;;5041699;28;20688;-73
2023/04/09 00:48:36;;;;;;;11.23;9.02;;;11.40;99.90;;;;;;5030747;28;20221;-74
2023/04/09 00:51:25;;;;;;;13.73;9.82;;;11.50;99.90;;;;;;5023728;28;20429;-73
2023/04/09 00:54:14;;;;;;;12.07;9.50;;;11.50;99.90;;;;;;5030386;28;20228;-72
2023/04/09 00:57:05;;;;;;;16.08;10.52;;;11.50;99.90;;;;;;5024541;28;20217;-72
2023/04/09 00:59:54;;;;;;;11.30;8.80;;;11.60;99.90;;;;;;5027778;28;20263;-73
2023/04/09 01:02:44;;;;;;;12.15;9.70;;;11.60;99.90;;;;;;5035183;28;20240;-73
2023/04/09 01:05:43;;;;;;;11.65;9.23;;;11.60;99.90;;;;;;5036776;28;20221;-74
2023/04/09 01:08:38;;;;;;;12.77;9.35;;;11.60;99.90;;;;;;5030070;28;20245;-71
2023/04/09 01:11:36;;;;;;;11.25;9.52;;;11.50;99.90;;;;;;5026328;28;20660;-73
2023/04/09 01:14:33;;;;;;;11.00;8.70;;;11.50;99.90;;;;;;5033637;28;20244;-71
2023/04/09 01:17:33;;;;;;;13.70;9.90;;;11.50;99.90;;;;;;5033544;28;20231;-71
2023/04/09 01:20:30;;;;;;;12.95;9.18;;;11.50;99.90;;;;;;5033604;28;20327;-72
2023/04/09 01:23:32;;;;;;;9.82;8.73;;;11.50;99.90;;;;;;5022997;28;20256;-74
2023/04/09 01:26:29;;;;;;;11.73;7.13;;;11.20;99.90;;;;;;5010700;28;20663;-73
2023/04/09 01:29:22;;;;;;;10.93;7.50;;;11.30;99.90;;;;;;5024441;28;20228;-74
2023/04/09 01:32:13;;;;;;;11.43;7.75;;;11.30;99.90;;;;;;5034522;28;20229;-73
2023/04/09 01:35:03;;;;;;;8.73;7.25;;;11.20;99.90;;;;;;5002472;28;20267;-71
2023/04/09 01:37:54;;;;;;;8.38;7.47;;;11.20;99.90;;;;;;5034456;28;20258;-70
2023/04/09 01:40:43;;;;;;;11.18;7.53;;;11.10;99.90;;;;;;5025188;28;20229;-70
2023/04/09 01:43:33;;;;;;;10.05;7.32;;;10.90;99.90;;;;;;5037766;28;20229;-71
2023/04/09 01:46:26;;;;;;;10.00;7.78;;;11.00;99.90;;;;;;5023046;28;20595;-73
2023/04/09 01:49:15;;;;;;;9.82;7.78;;;10.90;99.90;;;;;;5020685;28;20286;-73
2023/04/09 01:52:04;;;;;;;10.60;7.82;;;10.90;99.90;;;;;;5032063;28;20988;-73
2023/04/09 01:54:53;;;;;;;9.27;7.80;;;11.00;99.90;;;;;;5038727;28;20232;-71
2023/04/09 01:57:42;;;;;;;10.02;7.75;;;11.20;99.90;;;;;;5035724;28;20225;-72
2023/04/09 02:00:35;;;;;;;9.35;7.68;;;11.20;99.90;;;;;;5040705;28;20236;-71
2023/04/09 02:03:31;;;;;;;9.32;7.65;;;11.30;99.90;;;;;;5042226;28;20684;-71
2023/04/09 02:06:26;;;;;;;10.40;8.15;;;11.30;99.90;;;;;;5038594;28;20283;-72
2023/04/09 02:09:18;;;;;;;11.98;8.25;;;11.20;99.90;;;;;;5021689;28;20286;-71
2023/04/09 02:12:11;;;;;;;9.75;7.95;;;11.10;99.90;;;;;;5030240;28;20254;-71
2023/04/09 02:15:02;;;;;;;8.45;7.22;;;11.20;99.90;;;;;;5032001;28;20252;-72
2023/04/09 02:17:51;;;;;;;8.70;7.35;;;11.20;99.90;;;;;;5017161;28;20673;-71
2023/04/09 02:20:41;;;;;;;9.10;7.50;;;11.00;99.90;;;;;;5028956;28;20817;-70
2023/04/09 02:23:32;;;;;;;10.18;7.75;;;11.10;99.90;;;;;;5033356;28;21010;-72
2023/04/09 02:26:20;;;;;;;9.52;8.13;;;11.10;99.90;;;;;;5047051;28;20243;-70
2023/04/09 02:29:09;;;;;;;11.60;8.73;;;11.10;99.90;;;;;;5048024;28;20313;-67
2023/04/09 02:31:58;;;;;;;12.27;9.27;;;11.10;99.90;;;;;;5013451;28;20226;-71
2023/04/09 02:34:47;;;;;;;12.75;9.02;;;11.00;99.90;;;;;;5040632;28;20541;-72
2023/04/09 02:37:38;;;;;;;12.60;9.55;;;11.20;99.90;;;;;;5036109;28;20648;-70
2023/04/09 02:40:27;;;;;;;11.48;9.07;;;11.30;99.90;;;;;;5018127;28;20240;-71
2023/04/09 02:43:15;;;;;;;13.25;9.50;;;11.10;99.90;;;;;;5032088;28;20225;-72
2023/04/09 02:46:04;;;;;;;14.07;9.93;;;11.10;99.90;;;;;;5048353;28;20221;-71
2023/04/09 02:48:54;;;;;;;12.70;9.38;;;11.10;99.90;;;;;;5017196;28;20229;-73
2023/04/09 02:51:43;;;;;;;12.93;10.10;;;11.30;99.90;;;;;;5015259;28;20237;-73
2023/04/09 02:54:33;;;;;;;11.30;9.40;;;11.20;99.90;;;;;;5046079;28;20232;-72
2023/04/09 02:57:22;;;;;;;13.70;9.48;;;11.20;99.90;;;;;;5021111;28;20236;-72
2023/04/09 03:00:12;;;;;;;10.55;8.57;;;11.20;99.90;;;;;;5033091;28;20236;-72
2023/04/09 03:03:01;;;;;;;11.68;9.25;;;11.20;99.90;;;;;;5042373;28;20302;-73
2023/04/09 03:05:50;;;;;;;12.65;9.57;;;11.20;99.90;;;;;;5028872;28;20229;-71
2023/04/09 03:08:39;;;;;;;12.00;9.55;;;11.00;99.90;;;;;;5043030;28;20293;-71
2023/04/09 03:11:29;;;;;;;13.63;9.77;;;11.00;99.90;;;;;;5042126;28;20652;-72
2023/04/09 03:14:18;;;;;;;12.75;10.15;;;11.20;99.90;;;;;;5015256;28;20375;-73
2023/04/09 03:17:07;;;;;;;12.27;9.90;;;11.20;99.90;;;;;;5035270;28;20221;-74
2023/04/09 03:19:56;;;;;;;10.85;9.00;;;11.30;99.90;;;;;;5030478;28;20228;-72
2023/04/09 03:22:45;;;;;;;13.57;9.95;;;11.30;99.90;;;;;;5033969;28;20316;-74
2023/04/09 03:26:03;;;;;;;11.38;9.52;;;11.40;99.90;;;;;;5018763;28;20226;-72
2023/04/09 03:28:58;;;;;;;11.43;8.85;;;11.40;99.90;;;;;;5025319;28;20256;-72
2023/04/09 03:31:47;;;;;;;12.93;8.80;;;11.30;99.90;;;;;;5023189;28;20237;-71
2023/04/09 03:34:36;;;;;;;11.75;9.15;;;11.30;99.90;;;;;;5016418;28;20755;-71
2023/04/09 03:37:25;;;;;;;13.45;9.82;;;11.30;99.90;;;;;;5012246;28;20220;-73
2023/04/09 03:40:15;;;;;;;11.82;9.73;;;11.20;99.90;;;;;;5018490;28;20222;-71
2023/04/09 03:43:04;;;;;;;13.55;9.80;;;11.20;99.90;;;;;;4998840;28;20238;-72
2023/04/09 03:45:57;;;;;;;11.60;9.75;;;11.20;99.90;;;;;;5010548;28;20958;-72
2023/04/09 03:48:47;;;;;;;14.73;10.35;;;11.10;99.90;;;;;;5041899;28;20221;-73
2023/04/09 03:51:36;;;;;;;12.88;10.55;;;10.90;99.90;;;;;;5025918;28;20221;-72
2023/04/09 03:54:29;;;;;;;16.05;10.48;;;10.90;99.90;;;;;;5048422;28;20228;-73
2023/04/09 03:57:19;;;;;;;11.98;9.55;;;10.90;99.90;;;;;;5040637;28;20220;-71
2023/04/09 04:00:12;;;;;;;12.65;8.93;;;10.90;99.90;;;;;;5035726;28;20449;-72
2023/04/09 04:03:32;;;;;;;12.68;9.20;;;10.90;99.90;;;;;;5036062;28;20227;-71
2023/04/09 04:06:30;;;;;;;12.48;9.05;;;10.80;99.90;;;;;;5030963;28;20229;-72
2023/04/09 04:09:45;;;;;;;11.82;8.95;;;10.80;99.90;;;;;;5031144;28;20234;-71
2023/04/09 04:12:37;;;;;;;12.82;9.10;;;10.90;99.90;;;;;;5032167;28;20597;-72
2023/04/09 04:15:34;;;;;;;11.98;9.25;;;10.80;99.90;;;;;;5034157;28;20267;-72
2023/04/09 04:18:23;;;;;;;13.18;8.70;;;10.90;99.90;;;;;;5051096;28;20217;-70
2023/04/09 04:21:16;;;;;;;10.23;8.60;;;10.90;99.90;;;;;;5025189;28;20238;-70
2023/04/09 04:24:10;;;;;;;11.02;8.10;;;10.70;99.90;;;;;;5037745;28;20593;-72
2023/04/09 04:27:00;;;;;;;10.38;7.80;;;10.70;99.90;;;;;;5012213;28;20227;-75
2023/04/09 04:29:54;;;;;;;13.95;9.05;;;10.70;99.90;;;;;;5025817;28;20233;-73
2023/04/09 04:32:58;;;;;;;11.02;8.25;;;10.70;99.90;;;;;;5015584;28;20234;-73
2023/04/09 04:35:49;;;;;;;12.23;8.52;;;10.70;99.90;;;;;;5022967;28;20282;-73
2023/04/09 04:38:55;;;;;;;10.48;8.18;;;10.80;99.90;;;;;;5033626;28;20232;-72
2023/04/09 04:41:51;;;;;;;10.60;8.38;;;10.70;99.90;;;;;;5030923;28;20308;-72
2023/04/09 04:44:43;;;;;;;10.52;8.50;;;10.70;99.90;;;;;;5029405;28;20292;-71
2023/04/09 04:47:52;;;;;;;13.05;9.30;;;10.70;99.90;;;;;;5040142;28;20225;-72
2023/04/09 04:50:41;;;;;;;11.65;8.98;;;10.70;99.90;;;;;;5018605;28;20731;-72
2023/04/09 04:53:30;;;;;;;10.93;8.80;;;10.70;99.90;;;;;;5021764;28;20229;-72
2023/04/09 04:56:25;;;;;;;14.70;9.65;;;10.70;99.90;;;;;;5027466;28;20254;-72
2023/04/09 04:59:25;;;;;;;10.68;8.80;;;10.60;99.90;;;;;;5027798;28;20224;-72
2023/04/09 05:02:23;;;;;;;11.77;9.48;;;10.70;99.90;;;;;;5022682;28;21130;-72
2023/04/09 05:05:36;;;;;;;13.77;10.75;;;10.90;99.90;;;;;;4998253;28;20218;-72
2023/04/09 05:08:24;;;;;;;16.17;11.55;;;10.90;99.90;;;;;;5016856;28;20229;-73
2023/04/09 05:11:15;;;;;;;14.68;11.85;;;10.80;99.90;;;;;;5023029;28;20734;-72
2023/04/09 05:14:12;;;;;;;15.95;12.02;;;10.80;99.90;;;;;;5038011;28;20224;-72
2023/04/09 05:17:01;;;;;;;16.40;12.60;;;10.80;99.90;;;;;;5028784;28;20295;-72
2023/04/09 05:20:01;;;;;;;17.35;12.98;;;10.90;99.90;;;;;;5015891;28;20220;-73
2023/04/09 05:23:09;;;;;;;17.27;13.55;;;10.90;99.90;;;;;;4993926;28;20445;-73
2023/04/09 05:26:03;;;;;;;18.17;13.73;;;11.10;99.90;;;;;;5013287;28;20221;-72
2023/04/09 05:29:06;;;;;;;19.85;15.00;;;11.20;99.90;;;;;;5024943;28;20680;-72
2023/04/09 05:31:56;;;;;;;19.42;14.77;;;11.10;99.90;;;;;;5043330;28;20229;-71
2023/04/09 05:34:50;;;;;;;23.48;16.33;;;11.10;99.90;;;;;;5040939;28;20220;-73
2023/04/09 05:37:40;;;;;;;22.83;17.00;;;10.90;99.90;;;;;;5000468;28;20268;-71
2023/04/09 05:40:29;;;;;;;25.45;17.38;;;10.90;99.90;;;;;;5013008;28;20260;-71
2023/04/09 05:43:18;;;;;;;21.95;16.40;;;11.20;99.90;;;;;;5021774;28;20569;-72
2023/04/09 05:46:08;;;;;;;27.05;20.23;;;11.20;99.90;;;;;;5025972;28;20372;-67
2023/04/09 05:48:58;;;;;;;22.58;17.33;;;11.10;99.90;;;;;;5040606;28;20312;-72
2023/04/09 05:51:50;;;;;;;22.10;16.55;;;11.30;99.90;;;;;;5036082;28;20311;-72
2023/04/09 05:54:45;;;;;;;18.23;14.85;;;11.40;99.90;;;;;;5047072;28;20922;-70
2023/04/09 05:57:38;;;;;;;18.95;15.13;;;11.40;99.90;;;;;;5026293;28;20233;-71
2023/04/09 06:00:27;;;;;;;18.80;14.85;;;11.40;99.90;;;;;;5019529;28;20264;-72
2023/04/09 06:03:16;;;;;;;20.60;15.30;;;11.60;99.90;;;;;;5022016;28;20259;-72
2023/04/09 06:06:06;;;;;;;21.38;16.35;;;11.60;99.90;;;;;;5043078;28;20228;-73
2023/04/09 06:08:55;;;;;;;20.60;16.05;;;11.50;99.90;;;;;;5036347;28;20236;-73
2023/04/09 06:11:44;;;;;;;19.23;15.05;;;11.60;99.90;;;;;;5028599;28;20266;-74
2023/04/09 06:14:33;;;;;;;19.65;16.02;;;11.70;99.90;;;;;;5040219;28;20234;-72
2023/04/09 06:17:22;;;;;;;18.17;14.85;;;11.70;99.90;;;;;;5020655;28;20218;-73
2023/04/09 06:20:11;;;;;;;15.40;13.23;;;11.70;99.90;;;;;;5037082;28;20217;-73
2023/04/09 06:23:02;;;;;;;18.00;14.43;;;11.90;99.90;;;;;;5037513;28;20399;-70
2023/04/09 06:25:50;;;;;;;19.83;14.77;;;11.90;99.90;;;;;;5033814;28;20287;-74
2023/04/09 06:28:39;;;;;;;19.60;14.05;;;12.10;99.90;;;;;;5012794;28;20229;-72
2023/04/09 06:31:28;;;;;;;20.60;13.80;;;12.30;99.90;;;;;;5017484;28;20271;-72
2023/04/09 06:34:17;;;;;;;16.73;13.25;;;12.40;99.90;;;;;;5028022;28;20676;-72
2023/04/09 06:37:06;;;;;;;17.88;13.55;;;12.50;99.90;;;;;;5014373;28;20389;-72
2023/04/09 06:39:56;;;;;;;20.00;14.77;;;12.40;99.90;;;;;;5022664;28;20222;-72
2023/04/09 06:42:49;;;;;;;17.55;13.73;;;12.50;99.90;;;;;;5022012;28;20316;-72
2023/04/09 06:45:44;;;;;;;18.35;14.25;;;12.50;99.90;;;;;;5042871;28;20225;-73
2023/04/09 06:48:33;;;;;;;17.98;14.80;;;12.60;99.90;;;;;;5018745;28;20231;-72
2023/04/09 06:51:22;;;;;;;20.98;15.43;;;12.60;99.90;;;;;;5037810;28;20227;-72
2023/04/09 06:54:11;;;;;;;19.52;14.45;;;12.60;99.90;;;;;;5041750;28;20241;-72
2023/04/09 06:57:01;;;;;;;20.50;15.05;;;12.30;99.90;;;;;;5042863;28;20255;-71
2023/04/09 06:59:50;;;;;;;19.35;15.40;;;12.50;99.90;;;;;;5041840;28;20227;-73
2023/04/09 07:02:39;;;;;;;22.75;15.23;;;12.70;99.90;;;;;;5021559;28;20349;-73
2023/04/09 07:05:29;;;;;;;21.65;15.68;;;12.80;99.90;;;;;;5032585;28;20314;-71
2023/04/09 07:08:18;;;;;;;19.25;14.75;;;12.90;99.90;;;;;;5048148;28;20236;-73
2023/04/09 07:11:07;;;;;;;19.10;15.07;;;12.70;99.90;;;;;;5025312;28;20225;-74
2023/04/09 07:13:57;;;;;;;19.08;14.25;;;12.80;99.90;;;;;;5047020;28;20584;-74
2023/04/09 07:16:46;;;;;;;17.77;14.13;;;12.90;99.90;;;;;;5025104;28;20229;-74
2023/04/09 07:19:34;;;;;;;18.00;14.63;;;12.40;99.90;;;;;;5046892;28;20221;-72
2023/04/09 07:22:24;;;;;;;18.52;14.23;;;12.50;99.90;;;;;;5046362;28;20232;-73
2023/04/09 07:25:12;;;;;;;18.08;13.82;;;12.70;99.90;;;;;;5044026;28;20712;-73
2023/04/09 07:28:01;;;;;;;16.92;13.68;;;12.70;99.90;;;;;;5023294;28;20817;-72
2023/04/09 07:30:52;;;;;;;18.60;13.90;;;12.80;99.90;;;;;;5032647;28;20740;-72
2023/04/09 07:33:41;;;;;;;17.30;14.00;;;13.00;99.90;;;;;;5013209;28;20218;-73
2023/04/09 07:36:30;;;;;;;18.95;13.90;;;13.10;99.90;;;;;;5025249;28;20588;-72
2023/04/09 07:39:21;;;;;;;18.20;14.18;;;13.00;99.90;;;;;;5019397;28;20240;-72
2023/04/09 07:42:10;;;;;;;17.67;14.02;;;13.10;99.90;;;;;;5037272;28;20233;-74
2023/04/09 07:44:59;;;;;;;20.63;15.00;;;13.20;99.90;;;;;;5033895;28;20269;-73
2023/04/09 07:47:49;;;;;;;17.17;14.40;;;13.30;99.90;;;;;;5038364;28;20209;-73
2023/04/09 07:50:38;;;;;;;20.42;15.60;;;13.30;99.90;;;;;;5019577;28;20727;-73
2023/04/09 07:53:27;;;;;;;19.45;14.73;;;13.50;99.90;;;;;;5037598;28;20251;-72
2023/04/09 07:56:16;;;;;;;20.08;14.60;;;13.20;99.90;;;;;;5026100;28;20284;-72
2023/04/09 07:59:05;;;;;;;19.38;14.13;;;13.20;99.90;;;;;;5031608;28;20240;-72
2023/04/09 08:01:54;;;;;;;18.08;13.90;;;13.30;99.90;;;;;;5039917;28;20601;-73
2023/04/09 08:04:44;;;;;;;17.63;15.15;;;13.30;99.90;;;;;;5025570;28;20332;-73
2023/04/09 08:07:33;;;;;;;17.52;13.63;;;13.30;99.90;;;;;;5025978;28;20311;-72
2023/04/09 08:10:22;;;;;;;16.63;14.30;;;13.50;99.90;;;;;;5037910;28;20244;-74
2023/04/09 08:13:11;;;;;;;17.77;13.90;;;13.80;99.90;;;;;;5028437;28;20236;-73
2023/04/09 08:16:02;;;;;;;17.00;13.90;;;13.70;99.90;;;;;;5019444;28;20646;-73
2023/04/09 08:18:51;;;;;;;16.10;13.43;;;13.60;99.90;;;;;;5039175;28;20232;-73
2023/04/09 08:21:42;;;;;;;16.80;12.63;;;13.80;99.90;;;;;;5024001;28;20223;-73
2023/04/09 08:24:32;;;;;;;16.58;12.52;;;14.00;99.90;;;;;;5026242;28;20237;-72
2023/04/09 08:27:20;;;;;;;17.13;12.68;;;14.20;99.90;;;;;;5036025;28;20226;-72
2023/04/09 08:30:11;;;;;;;15.30;12.75;;;14.20;99.90;;;;;;5022640;28;20241;-72
2023/04/09 08:33:00;;;;;;;16.08;12.27;;;14.30;99.90;;;;;;5030820;28;20224;-71
2023/04/09 08:35:50;;;;;;;12.40;10.57;;;14.50;99.90;;;;;;5027664;28;20321;-71
2023/04/09 08:38:40;;;;;;;13.73;10.93;;;14.50;99.90;;;;;;5028279;28;20217;-71
2023/04/09 08:41:30;;;;;;;14.35;10.30;;;14.10;99.90;;;;;;5041920;28;20368;-72
2023/04/09 08:44:20;;;;;;;9.68;8.45;;;14.20;99.90;;;;;;5042595;28;20251;-70
2023/04/09 08:47:11;;;;;;;9.55;8.35;;;13.90;99.90;;;;;;5038192;28;20221;-73
2023/04/09 08:50:00;;;;;;;9.32;8.32;;;13.80;99.90;;;;;;5035436;28;20245;-72
2023/04/09 08:52:49;;;;;;;10.80;8.38;;;14.10;99.90;;;;;;5027307;28;20838;-73
2023/04/09 08:55:40;;;;;;;10.82;8.57;;;13.60;99.90;;;;;;5027440;28;20286;-72
2023/04/09 08:58:29;;;;;;;11.82;8.90;;;13.80;99.90;;;;;;5026270;28;20706;-72
2023/04/09 09:01:22;;;;;;;11.48;9.38;;;14.00;99.90;;;;;;5020589;28;20209;-72
2023/04/09 09:04:11;;;;;;;11.95;10.00;;;14.10;99.90;;;;;;5020341;28;20214;-73
2023/04/09 09:07:06;;;;;;;15.52;10.60;;;14.40;99.90;;;;;;5031866;28;20320;-72
2023/04/09 09:09:57;;;;;;;13.90;10.25;;;14.60;99.90;;;;;;5023690;28;20244;-72
2023/04/09 09:12:48;;;;;;;12.60;10.25;;;14.60;99.90;;;;;;5039438;28;20237;-68
2023/04/09 09:15:36;;;;;;;12.07;10.00;;;14.60;99.90;;;;;;5038770;28;20220;-70
2023/04/09 09:18:39;;;;;;;12.98;10.45;;;14.70;99.90;;;;;;5033141;28;20284;-72
2023/04/09 09:21:29;;;;;;;12.23;9.50;;;14.80;99.90;;;;;;5043186;28;20312;-72
2023/04/09 09:24:18;;;;;;;12.82;10.38;;;14.80;99.90;;;;;;5044093;28;20591;-72
2023/04/09 09:27:07;;;;;;;13.18;9.98;;;14.80;99.90;;;;;;5041163;28;20217;-74
2023/04/09 09:29:57;;;;;;;13.68;9.85;;;14.70;99.90;;;;;;5034985;28;20309;-74
2023/04/09 09:32:46;;;;;;;12.80;10.30;;;14.90;99.90;;;;;;5029431;28;20233;-73
2023/04/09 09:35:48;;;;;;;14.18;11.10;;;14.40;99.90;;;;;;5002507;28;20238;-73
2023/04/09 09:38:54;;;;;;;15.25;11.05;;;14.50;99.90;;;;;;5030019;28;20220;-72
2023/04/09 09:41:44;;;;;;;13.13;11.00;;;14.60;99.90;;;;;;5027015;28;20928;-71
2023/04/09 09:44:34;;;;;;;12.30;10.70;;;14.90;99.90;;;;;;5035373;28;20258;-73
2023/04/09 09:47:26;;;;;;;16.45;11.18;;;15.20;99.90;;;;;;5033913;28;20220;-72
2023/04/09 09:50:15;;;;;;;15.63;12.25;;;15.10;99.90;;;;;;5026934;28;20236;-73
2023/04/09 09:53:05;;;;;;;15.23;12.35;;;15.10;99.90;;;;;;5031566;28;20236;-72
2023/04/09 09:55:57;;;;;;;13.35;11.57;;;15.20;99.90;;;;;;5039758;28;20302;-72
2023/04/09 09:58:52;;;;;;;13.80;11.00;;;15.60;99.90;;;;;;5027383;28;20225;-72
2023/04/09 10:01:41;;;;;;;12.68;10.10;;;15.60;99.90;;;;;;5041682;28;20687;-72
2023/04/09 10:04:35;;;;;;;15.02;10.68;;;15.40;99.90;;;;;;5026598;28;20743;-73
2023/04/09 10:07:24;;;;;;;12.48;10.35;;;15.60;99.90;;;;;;5033336;28;20630;-72
2023/04/09 10:10:13;;;;;;;13.05;9.60;;;15.80;99.90;;;;;;5036581;28;20914;-72
2023/04/09 10:13:02;;;;;;;12.70;10.05;;;16.20;99.90;;;;;;5031391;28;20257;-73
2023/04/09 10:15:52;;;;;;;13.30;10.15;;;16.00;99.90;;;;;;5025857;28;20307;-72
2023/04/09 10:18:42;;;;;;;11.23;9.45;;;15.90;99.90;;;;;;5015484;28;20256;-72
2023/04/09 10:21:42;;;;;;;14.25;9.75;;;15.80;99.90;;;;;;5020799;28;20698;-73
2023/04/09 10:24:31;;;;;;;12.27;9.32;;;15.30;99.90;;;;;;5032659;28;20791;-72
2023/04/09 10:27:20;;;;;;;10.93;7.78;;;15.60;99.90;;;;;;5029727;28;20600;-74
2023/04/09 10:30:12;;;;;;;12.73;8.30;;;15.10;99.90;;;;;;5034424;28;21037;-72
2023/04/09 10:33:13;;;;;;;12.10;9.10;;;14.90;99.90;;;;;;5021297;28;20225;-72
2023/04/09 10:36:04;;;;;;;11.18;8.98;;;15.00;99.90;;;;;;5030072;28;20680;-73
2023/04/09 10:38:55;;;;;;;11.25;9.52;;;15.40;99.90;;;;;;5039651;28;20240;-71
2023/04/09 10:41:46;;;;;;;13.10;10.38;;;15.50;99.90;;;;;;5043143;28;20243;-71
2023/04/09 10:44:37;;;;;;;13.98;10.85;;;15.20;99.90;;;;;;5034220;28;20282;-73
2023/04/09 10:47:32;;;;;;;13.15;10.68;;;15.10;99.90;;;;;;5026096;28;20796;-72
2023/04/09 10:50:25;;;;;;;12.63;10.48;;;15.00;99.90;;;;;;5043596;28;20497;-73
2023/04/09 10:53:24;;;;;;;16.15;11.57;;;15.00;99.90;;;;;;5045830;28;20236;-72
2023/04/09 10:56:16;;;;;;;12.52;10.30;;;15.00;99.90;;;;;;5043767;28;20220;-72
2023/04/09 10:59:05;;;;;;;12.38;9.77;;;15.40;99.90;;;;;;5019986;28;20225;-73
2023/04/09 11:01:54;;;;;;;10.35;8.73;;;15.70;99.90;;;;;;5033795;28;20232;-72
2023/04/09 11:04:56;;;;;;;11.50;8.95;;;15.70;99.90;;;;;;5032303;28;20244;-73
2023/04/09 11:07:49;;;;;;;12.95;9.73;;;16.30;99.90;;;;;;5045156;28;20342;-72
2023/04/09 11:10:40;;;;;;;12.60;9.80;;;16.00;99.90;;;;;;5024895;28;20232;-72
2023/04/09 11:13:32;;;;;;;13.80;10.10;;;15.70;99.90;;;;;;5013810;28;20240;-72
2023/04/09 11:16:23;;;;;;;14.48;10.07;;;16.00;99.90;;;;;;5036170;28;20816;-73
2023/04/09 11:19:15;;;;;;;14.88;10.57;;;16.50;99.90;;;;;;5043951;28;20324;-72
2023/04/09 11:22:05;;;;;;;10.75;9.23;;;16.40;99.90;;;;;;5044055;28;20229;-72
2023/04/09 11:24:54;;;;;;;11.45;10.02;;;16.10;99.90;;;;;;5019903;28;20605;-71
2023/04/09 11:27:45;;;;;;;12.90;9.27;;;16.30;99.90;;;;;;5022883;28;20234;-72
2023/04/09 11:30:37;;;;;;;10.60;8.93;;;16.00;99.90;;;;;;5030868;28;20217;-73
2023/04/09 11:33:33;;;;;;;12.35;8.57;;;16.20;99.90;;;;;;5030377;28;20241;-71
2023/04/09 11:36:22;;;;;;;11.20;8.35;;;15.80;99.90;;;;;;5036241;28;20256;-72
2023/04/09 11:39:11;;;;;;;12.68;9.13;;;16.00;99.90;;;;;;5032461;28;20232;-70
2023/04/09 11:42:01;;;;;;;12.77;9.65;;;16.20;99.90;;;;;;5033603;28;20300;-71
2023/04/09 11:44:50;;;;;;;13.07;9.57;;;15.90;99.90;;;;;;5022327;28;20927;-74
2023/04/09 11:47:41;;;;;;;13.90;9.32;;;16.10;99.90;;;;;;5031746;28;20234;-72
2023/04/09 11:50:32;;;;;;;10.88;8.75;;;16.20;99.90;;;;;;5034108;28;20720;-75
2023/04/09 11:53:22;;;;;;;11.43;9.48;;;16.20;99.90;;;;;;5035125;28;20247;-74
2023/04/09 11:56:11;;;;;;;12.30;8.57;;;16.30;99.90;;;;;;5027933;28;20229;-75
2023/04/09 11:59:01;;;;;;;9.95;7.82;;;16.00;99.90;;;;;;5027905;28;20223;-72
2023/04/09 12:01:50;;;;;;;12.13;7.60;;;15.90;99.90;;;;;;5029378;28;20255;-73
2023/04/09 12:04:49;;;;;;;9.02;6.97;;;16.40;99.90;;;;;;5029150;28;20345;-74
2023/04/09 12:07:39;;;;;;;8.25;7.13;;;16.10;99.90;;;;;;5021852;28;20229;-74
2023/04/09 12:10:35;;;;;;;7.78;6.75;;;16.30;99.90;;;;;;5016258;28;20295;-73
2023/04/09 12:13:33;;;;;;;9.65;7.53;;;16.60;99.90;;;;;;5017716;28;20899;-71
2023/04/09 12:16:21;;;;;;;9.25;7.70;;;16.80;99.90;;;;;;5029875;28;20635;-74
2023/04/09 12:19:11;;;;;;;12.07;9.05;;;17.00;99.90;;;;;;5040922;28;20235;-73
2023/04/09 12:22:02;;;;;;;11.93;10.18;;;17.00;99.90;;;;;;5046576;28;20389;-74
2023/04/09 12:24:51;;;;;;;10.75;9.25;;;16.90;99.90;;;;;;5022718;28;20240;-73
2023/04/09 12:27:39;;;;;;;9.13;8.10;;;17.00;99.90;;;;;;5041665;28;20236;-70
2023/04/09 12:30:29;;;;;;;10.82;8.35;;;17.00;99.90;;;;;;5038128;28;20638;-73
2023/04/09 12:33:18;;;;;;;10.45;8.23;;;16.60;99.90;;;;;;5019925;28;20336;-74
2023/04/09 12:36:07;;;;;;;9.82;7.85;;;16.70;99.90;;;;;;5032484;28;20225;-69
2023/04/09 12:38:58;;;;;;;11.55;8.48;;;16.90;99.90;;;;;;5042900;28;20676;-74
2023/04/09 12:41:47;;;;;;;9.38;8.10;;;16.90;99.90;;;;;;5033452;28;20232;-73
2023/04/09 12:44:36;;;;;;;10.18;8.52;;;16.50;99.90;;;;;;5026878;28;20221;-73
2023/04/09 12:47:24;;;;;;;10.55;8.60;;;16.10;99.90;;;;;;5045491;28;20232;-75
2023/04/09 12:50:14;;;;;;;11.85;8.07;;;15.90;99.90;;;;;;5044531;28;20224;-73
2023/04/09 12:53:03;;;;;;;10.18;7.93;;;15.80;99.90;;;;;;5027645;28;20232;-73
2023/04/09 12:55:54;;;;;;;9.05;7.32;;;15.80;99.90;;;;;;5039938;28;20474;-73
2023/04/09 12:58:42;;;;;;;9.75;7.50;;;16.00;99.90;;;;;;5042212;28;20264;-73
2023/04/09 13:01:32;;;;;;;12.63;7.53;;;16.10;99.90;;;;;;5033885;28;20261;-72
2023/04/09 13:04:21;;;;;;;10.93;6.93;;;16.30;99.90;;;;;;5022698;28;20229;-72
2023/04/09 13:07:11;;;;;;;10.82;7.57;;;16.20;99.90;;;;;;5029814;28;20221;-72
2023/04/09 13:10:00;;;;;;;10.60;8.25;;;16.10;99.90;;;;;;5027935;28;20651;-72
2023/04/09 13:12:51;;;;;;;11.48;8.50;;;15.90;99.90;;;;;;5039308;28;20231;-70
2023/04/09 13:15:42;;;;;;;11.57;9.13;;;14.90;99.90;;;;;;5023629;28;20284;-74
2023/04/09 13:18:31;;;;;;;13.20;9.50;;;14.20;99.90;;;;;;5030516;28;20547;-72
2023/04/09 13:21:19;;;;;;;12.32;9.27;;;13.80;99.90;;;;;;5019576;28;20229;-73
2023/04/09 13:24:08;;;;;;;10.57;8.38;;;13.70;99.90;;;;;;5044097;28;20228;-72
2023/04/09 13:26:57;;;;;;;12.45;8.18;;;13.70;99.90;;;;;;5029270;28;20236;-74
2023/04/09 13:29:47;;;;;;;7.57;6.80;;;14.00;99.90;;;;;;5020228;28;20249;-73
2023/04/09 13:32:36;;;;;;;8.43;6.90;;;14.10;99.90;;;;;;5038878;28;20304;-73
2023/04/09 13:35:25;;;;;;;9.15;7.10;;;14.20;99.90;;;;;;5013978;28;20336;-72
2023/04/09 13:38:14;;;;;;;9.60;7.05;;;14.50;99.90;;;;;;5028633;28;20798;-72
2023/04/09 13:41:03;;;;;;;8.95;6.68;;;14.70;99.90;;;;;;5035721;28;20221;-73
2023/04/09 13:43:51;;;;;;;6.93;6.00;;;15.10;99.90;;;;;;5034829;28;20582;-72
2023/04/09 13:46:41;;;;;;;10.98;7.00;;;15.00;99.90;;;;;;5034140;28;20696;-72
2023/04/09 13:49:31;;;;;;;9.20;7.03;;;15.20;99.90;;;;;;5027082;28;21043;-71
2023/04/09 13:52:19;;;;;;;11.27;6.78;;;15.30;99.90;;;;;;5041717;28;20223;-71
2023/04/09 13:55:10;;;;;;;7.18;6.40;;;15.30;99.90;;;;;;5023427;28;20229;-72
2023/04/09 13:57:59;;;;;;;9.00;6.85;;;15.40;99.90;;;;;;5030912;28;20232;-72
2023/04/09 14:00:48;;;;;;;7.35;6.40;;;15.40;99.90;;;;;;5025052;28;20225;-72
2023/04/09 14:03:39;;;;;;;8.60;6.70;;;15.30;99.90;;;;;;5044543;28;20240;-72
2023/04/09 14:06:27;;;;;;;10.77;7.30;;;15.30;99.90;;;;;;5043864;28;20232;-72
2023/04/09 14:09:16;;;;;;;9.60;7.72;;;15.00;99.90;;;;;;5040285;28;20236;-73
2023/04/09 14:12:05;;;;;;;9.32;7.85;;;14.90;99.90;;;;;;5028336;28;20228;-74
2023/04/09 14:14:54;;;;;;;10.30;7.13;;;14.70;99.90;;;;;;5023300;28;20281;-74
2023/04/09 14:17:43;;;;;;;11.68;7.55;;;14.50;99.90;;;;;;5019946;28;20596;-73
2023/04/09 14:20:35;;;;;;;10.10;7.18;;;14.60;99.90;;;;;;5044133;28;20220;-73
2023/04/09 14:23:25;;;;;;;8.65;6.57;;;14.90;99.90;;;;;;5009877;28;20685;-72
2023/04/09 14:26:15;;;;;;;10.68;6.75;;;14.80;99.90;;;;;;5025488;28;20221;-73
2023/04/09 14:29:04;;;;;;;9.13;5.93;;;14.90;99.90;;;;;;5040853;28;20324;-73
2023/04/09 14:31:53;;;;;;;7.53;6.72;;;14.80;99.90;;;;;;5033642;28;20554;-73
2023/04/09 14:34:44;;;;;;;8.73;6.50;;;14.70;99.90;;;;;;5036787;28;20221;-73